Airfield :
LOGIN :

Register | Disclaimer

   EN    FR    IT 

 










Legend :    VFR   Marginal VFR   IFR   Intensive IFR   Very Intensive IFR
Visi :
Ceiling :
>= 8 km
>= 3000ft
5 to 8 km
1000 to 3000 ft
1500m to 5 km
500 to 1000 ft
800 to 1500m
200 to 500 ft
< 800m
< 200 ft
Symbols :   Thunderstorms  Fog  Heavy snow  Heavy precipitations  Wind > 20 kt
SIGMETs :     Misc.  Thunderstorms  Icing  Turbulence  Mountain Waves  Volcanic Ashes






- Airport Elevation : 268 ft
- IATA code : BFS


EGAA - Belfast Aldergrove

CURRENT METAR :
  • 271020Z 19004KT 160V220 2000 BR OVC001 05/05 Q1010

EXPIRED METARs :
  • 270950Z 19006KT 0400 R25/0650 R07/0600 FG BKN001 05/05 Q1010
  • 270920Z 19004KT 0300 R25/0450 R07/0325 FG BKN001 05/05 Q1010
  • 270850Z 18004KT 030V200 0150 R25/0400 R07/0350 FG OVC001 05/05 Q1009
  • 270820Z 15003KT 0100 R25/0250 R07/0225 FG OVC001 05/05 Q1009
  • 270750Z 16002KT 0150 R25/0300 R07/0325 FG OVC001 05/05 Q1009

TAF AMD TAF EGAA
Valid from the 27 at 06:00 until the 28 at 06:00 UTC


270527Z 2706/2806 24006KT 4000 BR FEW001 SCT015
TEMPO 2706/2714 0200 FG BKN000
BECMG 2713/2716 9999 NSW
PROB40
TEMPO 2714/2716 BKN003
BECMG 2717/2720 09010KT
TEMPO 2719/2806 6000 RA -RADZ SCT008 BKN012
PROB40
TEMPO 2719/2806 3000 +RA RADZ BKN007
BECMG 2720/2723 09018G30KT



MET'MAP, your aeronautical weather chart ! - Copyright ORBIFLY December 2007 - Disclaimer

ORBIFLY MET'MAP TEAM :

Programming & Development : Alexandra Zaïnal
Concept & original design : Baudouin d'Aumeries
Assistance for programming : Marc-Olivier Méhu
Technical & hardware support : Manuel Goepfert

Contact : metmap@orbifly.com




SOURCES & CREDITS :

   NOAA